Time;durP1;ratioP1;P1;durP2;ratioP2;P2;SDS_P1;SDS_P2;PMS_P1;PMS_P2;Temp;Humidity;BMP_temperature;BMP_pressure;BME280_temperature;BME280_humidity;BME280_pressure;Samples;Min_cycle;Max_cycle;Signal;HPM_P1;HPM_P2
2023/12/01 00:00:39;;;;;;;;;;;;;;;;;;4971003;28;19927;-67
2023/12/01 00:03:06;;;;;;;;;;;;;;;;;;4971185;28;19965;-67
2023/12/01 00:05:33;;;;;;;;;;;;;;;;;;4971740;28;19961;-67
2023/12/01 00:08:00;;;;;;;;;;;;;;;;;;4970456;28;19972;-67
2023/12/01 00:10:27;;;;;;;;;;;;;;;;;;4974932;28;20411;-67
2023/12/01 00:12:54;;;;;;;;;;;;;;;;;;4984562;28;20021;-67
2023/12/01 00:15:21;;;;;;;;;;;;;;;;;;4966292;28;19961;-67
2023/12/01 00:17:48;;;;;;;;;;;;;;;;;;4974681;28;19986;-67
2023/12/01 00:20:15;;;;;;;;;;;;;;;;;;4971169;28;19975;-68
2023/12/01 00:22:43;;;;;;;;;;;;;;;;;;4963664;28;19937;-68
2023/12/01 00:25:10;;;;;;;;;;;;;;;;;;4968604;28;19926;-67
2023/12/01 00:27:37;;;;;;;;;;;;;;;;;;4971359;28;19926;-67
2023/12/01 00:30:04;;;;;;;;;;;;;;;;;;4971141;28;19933;-67
2023/12/01 00:32:31;;;;;;;;;;;;;;;;;;4970744;28;19972;-67
2023/12/01 00:34:58;;;;;;;;;;;;;;;;;;4970325;28;19930;-67
2023/12/01 00:37:25;;;;;;;;;;;;;;;;;;4970040;28;19980;-67
2023/12/01 00:39:52;;;;;;;;;;;;;;;;;;4971344;28;20377;-67
2023/12/01 00:42:19;;;;;;;;;;;;;;;;;;4970525;28;19934;-67
2023/12/01 00:44:46;;;;;;;;;;;;;;;;;;4971892;28;19979;-67
2023/12/01 00:47:13;;;;;;;;;;;;;;;;;;4970132;28;20363;-67
2023/12/01 00:49:40;;;;;;;;;;;;;;;;;;4970269;28;19930;-67
2023/12/01 00:52:07;;;;;;;;;;;;;;;;;;4973143;28;19934;-65
2023/12/01 00:54:34;;;;;;;;;;;;;;;;;;4969729;28;19926;-67
2023/12/01 00:57:02;;;;;;;;;;;;;;;;;;4969488;28;20396;-66
2023/12/01 00:59:29;;;;;;;;;;;;;;;;;;4970847;28;20377;-66
2023/12/01 01:01:56;;;;;;;;;;;;;;;;;;4970138;28;19926;-67
2023/12/01 01:04:23;;;;;;;;;;;;;;;;;;4969859;28;19926;-66
2023/12/01 01:06:50;;;;;;;;;;;;;;;;;;4978611;28;20361;-67
2023/12/01 01:09:17;;;;;;;;;;;;;;;;;;4982896;28;19930;-67
2023/12/01 01:11:44;;;;;;;;;;;;;;;;;;4970561;28;19976;-67
2023/12/01 01:14:11;;;;;;;;;;;;;;;;;;4969603;28;19995;-67
2023/12/01 01:16:38;;;;;;;;;;;;;;;;;;4969651;28;19926;-67
2023/12/01 01:19:05;;;;;;;;;;;;;;;;;;4972556;28;20420;-67
2023/12/01 01:21:32;;;;;;;;;;;;;;;;;;4970303;28;19934;-67
2023/12/01 01:23:59;;;;;;;;;;;;;;;;;;4969780;28;19980;-67
2023/12/01 01:26:26;;;;;;;;;;;;;;;;;;4966676;28;19980;-67
2023/12/01 01:28:53;;;;;;;;;;;;;;;;;;4965565;28;19933;-68
2023/12/01 01:31:20;;;;;;;;;;;;;;;;;;4968409;28;19998;-67
2023/12/01 01:33:47;;;;;;;;;;;;;;;;;;4969567;28;19926;-67
2023/12/01 01:36:14;;;;;;;;;;;;;;;;;;4951070;28;19926;-68
2023/12/01 01:38:41;;;;;;;;;;;;;;;;;;4961900;28;19930;-66
2023/12/01 01:41:08;;;;;;;;;;;;;;;;;;4969802;28;20335;-67
2023/12/01 01:43:36;;;;;;;;;;;;;;;;;;4969680;28;19969;-66
2023/12/01 01:46:03;;;;;;;;;;;;;;;;;;4966274;28;20435;-66
2023/12/01 01:48:30;;;;;;;;;;;;;;;;;;4969342;28;19980;-66
2023/12/01 01:50:57;;;;;;;;;;;;;;;;;;4970193;28;20288;-67
2023/12/01 01:53:24;;;;;;;;;;;;;;;;;;4969322;28;19934;-67
2023/12/01 01:55:51;;;;;;;;;;;;;;;;;;4968680;28;20339;-67
2023/12/01 01:58:18;;;;;;;;;;;;;;;;;;4969393;28;19941;-67
2023/12/01 02:00:49;;;;;;;;;;;;;;;;;;4970143;28;20004;-66
2023/12/01 02:03:16;;;;;;;;;;;;;;;;;;4968322;28;19965;-66
2023/12/01 02:05:47;;;;;;;;;;;;;;;;;;4969893;28;20308;-66
2023/12/01 02:08:14;;;;;;;;;;;;;;;;;;4969088;28;19926;-67
2023/12/01 02:10:41;;;;;;;;;;;;;;;;;;4968925;28;20396;-67
2023/12/01 02:13:10;;;;;;;;;;;;;;;;;;4968904;28;19961;-67
2023/12/01 02:15:37;;;;;;;;;;;;;;;;;;4969033;28;19932;-67
2023/12/01 02:18:04;;;;;;;;;;;;;;;;;;4966278;28;19937;-66
2023/12/01 02:20:31;;;;;;;;;;;;;;;;;;4969788;28;19930;-66
2023/12/01 02:22:58;;;;;;;;;;;;;;;;;;4971385;28;19949;-66
2023/12/01 02:25:25;;;;;;;;;;;;;;;;;;4973031;28;19926;-66
2023/12/01 02:27:52;;;;;;;;;;;;;;;;;;4972046;28;20016;-66
2023/12/01 02:30:20;;;;;;;;;;;;;;;;;;4972744;28;20389;-67
2023/12/01 02:32:47;;;;;;;;;;;;;;;;;;4972650;28;19926;-67
2023/12/01 02:35:14;;;;;;;;;;;;;;;;;;4975353;28;19987;-68
2023/12/01 02:37:41;;;;;;;;;;;;;;;;;;4971354;28;19926;-67
2023/12/01 02:40:15;;;;;;;;;;;;;;;;;;4969986;28;19926;-67
2023/12/01 02:42:42;;;;;;;;;;;;;;;;;;4972990;28;20304;-67
2023/12/01 02:45:09;;;;;;;;;;;;;;;;;;4972978;28;19926;-67
2023/12/01 02:47:36;;;;;;;;;;;;;;;;;;4973101;28;19932;-67
2023/12/01 02:50:03;;;;;;;;;;;;;;;;;;4971400;28;20373;-67
2023/12/01 02:52:30;;;;;;;;;;;;;;;;;;4973449;28;19926;-67
2023/12/01 02:54:57;;;;;;;;;;;;;;;;;;4972801;28;19926;-67
2023/12/01 02:57:24;;;;;;;;;;;;;;;;;;4972715;28;19930;-67
2023/12/01 02:59:51;;;;;;;;;;;;;;;;;;4971325;28;19980;-67
2023/12/01 03:02:17;;;;;;;;;;;;;;;;;;4971639;28;19971;-67
2023/12/01 03:04:44;;;;;;;;;;;;;;;;;;4972443;28;19995;-67
2023/12/01 03:07:11;;;;;;;;;;;;;;;;;;4972196;28;19980;-67
2023/12/01 03:09:38;;;;;;;;;;;;;;;;;;4971245;28;19926;-67
2023/12/01 03:12:04;;;;;;;;;;;;;;;;;;4972040;28;19971;-67
2023/12/01 03:14:32;;;;;;;;;;;;;;;;;;4972981;28;19930;-66
2023/12/01 03:16:59;;;;;;;;;;;;;;;;;;4971250;28;20414;-67
2023/12/01 03:19:26;;;;;;;;;;;;;;;;;;4971360;28;20419;-66
2023/12/01 03:21:53;;;;;;;;;;;;;;;;;;4972290;28;19926;-66
2023/12/01 03:24:20;;;;;;;;;;;;;;;;;;4972754;28;19926;-67
2023/12/01 03:26:47;;;;;;;;;;;;;;;;;;4971511;28;20333;-67
2023/12/01 03:29:14;;;;;;;;;;;;;;;;;;4972431;28;19926;-67
2023/12/01 03:31:41;;;;;;;;;;;;;;;;;;4969829;28;20300;-66
2023/12/01 03:34:08;;;;;;;;;;;;;;;;;;4965333;28;19987;-67
2023/12/01 03:36:35;;;;;;;;;;;;;;;;;;4971784;28;20423;-67
2023/12/01 03:39:03;;;;;;;;;;;;;;;;;;4970751;28;19972;-66
2023/12/01 03:41:30;;;;;;;;;;;;;;;;;;4972799;28;20013;-66
2023/12/01 03:43:57;;;;;;;;;;;;;;;;;;4974489;28;20369;-67
2023/12/01 03:46:24;;;;;;;;;;;;;;;;;;4971348;28;19930;-66
2023/12/01 03:48:51;;;;;;;;;;;;;;;;;;4971732;28;19970;-66
2023/12/01 03:51:18;;;;;;;;;;;;;;;;;;4968641;28;19956;-66
2023/12/01 03:53:45;;;;;;;;;;;;;;;;;;4970959;28;19926;-66
2023/12/01 03:56:12;;;;;;;;;;;;;;;;;;4971731;28;20393;-66
2023/12/01 03:58:39;;;;;;;;;;;;;;;;;;4975554;28;19979;-66
2023/12/01 04:01:06;;;;;;;;;;;;;;;;;;4984232;28;20422;-66
2023/12/01 04:03:33;;;;;;;;;;;;;;;;;;4971681;28;20032;-66
2023/12/01 04:06:01;;;;;;;;;;;;;;;;;;4971655;28;19926;-66
2023/12/01 04:08:28;;;;;;;;;;;;;;;;;;4970364;28;19933;-66
2023/12/01 04:10:55;;;;;;;;;;;;;;;;;;4968894;28;19930;-67
2023/12/01 04:13:22;;;;;;;;;;;;;;;;;;4971132;28;19926;-66
2023/12/01 04:15:50;;;;;;;;;;;;;;;;;;4972577;28;20013;-67
2023/12/01 04:18:17;;;;;;;;;;;;;;;;;;4993781;28;19968;-66
2023/12/01 04:20:44;;;;;;;;;;;;;;;;;;4975206;28;20315;-65
2023/12/01 04:23:11;;;;;;;;;;;;;;;;;;4970952;28;20332;-65
2023/12/01 04:25:38;;;;;;;;;;;;;;;;;;4970990;28;19926;-66
2023/12/01 04:28:05;;;;;;;;;;;;;;;;;;4968372;28;19926;-66
2023/12/01 04:30:32;;;;;;;;;;;;;;;;;;4970974;28;19929;-66
2023/12/01 04:32:59;;;;;;;;;;;;;;;;;;4971256;28;19926;-66
2023/12/01 04:35:26;;;;;;;;;;;;;;;;;;4971003;28;19961;-66
2023/12/01 04:37:53;;;;;;;;;;;;;;;;;;4969755;28;19926;-66
2023/12/01 04:40:20;;;;;;;;;;;;;;;;;;4970965;28;19975;-66
2023/12/01 04:42:47;;;;;;;;;;;;;;;;;;4970781;28;19934;-66
2023/12/01 04:45:14;;;;;;;;;;;;;;;;;;4969647;28;20396;-66
2023/12/01 04:47:41;;;;;;;;;;;;;;;;;;4969844;28;19933;-66
2023/12/01 04:50:12;;;;;;;;;;;;;;;;;;4971528;28;19934;-66
2023/12/01 04:52:39;;;;;;;;;;;;;;;;;;4970661;28;20630;-66
2023/12/01 04:55:06;;;;;;;;;;;;;;;;;;4970450;28;19927;-66
2023/12/01 04:57:34;;;;;;;;;;;;;;;;;;4969184;28;20336;-66
2023/12/01 05:00:01;;;;;;;;;;;;;;;;;;4969717;28;20433;-66
2023/12/01 05:02:28;;;;;;;;;;;;;;;;;;4968828;28;19926;-67
2023/12/01 05:04:55;;;;;;;;;;;;;;;;;;4969920;28;20385;-67
2023/12/01 05:07:22;;;;;;;;;;;;;;;;;;4979085;28;19938;-67
2023/12/01 05:09:49;;;;;;;;;;;;;;;;;;4971150;28;19933;-67
2023/12/01 05:12:16;;;;;;;;;;;;;;;;;;4973760;28;19995;-67
2023/12/01 05:14:44;;;;;;;;;;;;;;;;;;4976393;28;20054;-67
2023/12/01 05:17:11;;;;;;;;;;;;;;;;;;4969948;28;19926;-67
2023/12/01 05:19:38;;;;;;;;;;;;;;;;;;4969492;28;19927;-67
2023/12/01 05:22:05;;;;;;;;;;;;;;;;;;4966551;28;19930;-67
2023/12/01 05:24:32;;;;;;;;;;;;;;;;;;4974798;28;19926;-67
2023/12/01 05:27:07;;;;;;;;;;;;;;;;;;4970078;28;20369;-66
2023/12/01 05:29:35;;;;;;;;;;;;;;;;;;4968831;28;20026;-67
2023/12/01 05:32:02;;;;;;;;;;;;;;;;;;4971231;28;19926;-66
2023/12/01 05:34:29;;;;;;;;;;;;;;;;;;4970266;28;20339;-66
2023/12/01 05:36:56;;;;;;;;;;;;;;;;;;4970065;28;19926;-64
2023/12/01 05:39:23;;;;;;;;;;;;;;;;;;4955139;28;19965;-65
2023/12/01 05:41:50;;;;;;;;;;;;;;;;;;4968665;28;19933;-66
2023/12/01 05:44:17;;;;;;;;;;;;;;;;;;4969272;28;19933;-66
2023/12/01 05:46:46;;;;;;;;;;;;;;;;;;4969373;28;19926;-66
2023/12/01 05:49:14;;;;;;;;;;;;;;;;;;4969726;28;19972;-66
2023/12/01 05:51:41;;;;;;;;;;;;;;;;;;4968262;28;19941;-66
2023/12/01 05:54:08;;;;;;;;;;;;;;;;;;4968539;28;20002;-66
2023/12/01 05:56:35;;;;;;;;;;;;;;;;;;4970266;28;20293;-65
2023/12/01 05:59:04;;;;;;;;;;;;;;;;;;4969965;28;19930;-65
2023/12/01 06:01:31;;;;;;;;;;;;;;;;;;4970863;28;20408;-66
2023/12/01 06:03:58;;;;;;;;;;;;;;;;;;4968497;28;19980;-67
2023/12/01 06:06:26;;;;;;;;;;;;;;;;;;4968637;28;20393;-67
2023/12/01 06:08:54;;;;;;;;;;;;;;;;;;4969068;28;19926;-66
2023/12/01 06:11:21;;;;;;;;;;;;;;;;;;4968881;28;20335;-67
2023/12/01 06:13:48;;;;;;;;;;;;;;;;;;4969351;28;19930;-66
2023/12/01 06:16:15;;;;;;;;;;;;;;;;;;4966729;28;19988;-66
2023/12/01 06:18:42;;;;;;;;;;;;;;;;;;4969452;28;19934;-67
2023/12/01 06:21:09;;;;;;;;;;;;;;;;;;4969134;28;19933;-66
2023/12/01 06:23:36;;;;;;;;;;;;;;;;;;4969049;28;20411;-66
2023/12/01 06:26:03;;;;;;;;;;;;;;;;;;4967276;28;19980;-66
2023/12/01 06:28:30;;;;;;;;;;;;;;;;;;4958364;28;19927;-65
2023/12/01 06:30:57;;;;;;;;;;;;;;;;;;4967597;28;19926;-66
2023/12/01 06:33:26;;;;;;;;;;;;;;;;;;4968207;28;19926;-65
2023/12/01 06:35:53;;;;;;;;;;;;;;;;;;4976698;28;19980;-66
2023/12/01 06:38:20;;;;;;;;;;;;;;;;;;4965945;28;20424;-67
2023/12/01 06:40:47;;;;;;;;;;;;;;;;;;4962944;28;19927;-67
2023/12/01 06:45:44;;;;;;;;;;;;;;;;;;5017365;22;19926;-66
2023/12/01 06:48:11;;;;;;;;;;;;;;;;;;5011489;28;20389;-67
2023/12/01 06:50:39;;;;;;;;;;;;;;;;;;4997368;28;22308;-68
2023/12/01 06:53:06;;;;;;;;;;;;;;;;;;5008167;28;19987;-67
2023/12/01 06:55:34;;;;;;;;;;;;;;;;;;5008203;28;19925;-68
2023/12/01 06:58:01;;;;;;;;;;;;;;;;;;5011321;28;19936;-67
2023/12/01 07:00:33;;;;;;;;;;;;;;;;;;5010879;28;20436;-67
2023/12/01 07:03:00;;;;;;;;;;;;;;;;;;5012751;28;19925;-67
2023/12/01 07:05:27;;;;;;;;;;;;;;;;;;5014128;28;20451;-66
2023/12/01 07:07:55;;;;;;;;;;;;;;;;;;5010127;28;19956;-66
2023/12/01 07:10:22;;;;;;;;;;;;;;;;;;5014250;28;19929;-68
2023/12/01 07:12:49;;;;;;;;;;;;;;;;;;5014233;28;20273;-67
2023/12/01 07:15:20;;;;;;;;;;;;;;;;;;5010779;28;20053;-66
2023/12/01 07:17:47;;;;;;;;;;;;;;;;;;5006343;28;20015;-68
2023/12/01 07:20:15;;;;;;;;;;;;;;;;;;5009295;28;19956;-67
2023/12/01 07:22:43;;;;;;;;;;;;;;;;;;5021102;28;20760;-67
2023/12/01 07:25:10;;;;;;;;;;;;;;;;;;4998711;28;19933;-66
2023/12/01 07:27:37;;;;;;;;;;;;;;;;;;4999866;28;19932;-66
2023/12/01 07:30:04;;;;;;;;;;;;;;;;;;5010326;28;20244;-65
2023/12/01 07:32:31;;;;;;;;;;;;;;;;;;5011583;28;20404;-65
2023/12/01 07:34:58;;;;;;;;;;;;;;;;;;5013476;28;19925;-65
2023/12/01 07:37:25;;;;;;;;;;;;;;;;;;5020790;28;19929;-64
2023/12/01 07:39:52;;;;;;;;;;;;;;;;;;5013702;28;20376;-66
2023/12/01 07:42:19;;;;;;;;;;;;;;;;;;5015028;28;19937;-65
2023/12/01 07:44:47;;;;;;;;;;;;;;;;;;5015141;28;19926;-65
2023/12/01 07:47:15;;;;;;;;;;;;;;;;;;5013736;28;19925;-64
2023/12/01 07:49:42;;;;;;;;;;;;;;;;;;5011063;28;19979;-63
2023/12/01 07:52:09;;;;;;;;;;;;;;;;;;5012230;28;19925;-64
2023/12/01 07:54:36;;;;;;;;;;;;;;;;;;5012436;28;19933;-64
2023/12/01 07:57:04;;;;;;;;;;;;;;;;;;5002013;28;19991;-64
2023/12/01 07:59:31;;;;;;;;;;;;;;;;;;5002032;28;19945;-65
2023/12/01 08:01:59;;;;;;;;;;;;;;;;;;5002207;28;19970;-65
2023/12/01 08:04:26;;;;;;;;;;;;;;;;;;5009755;28;19972;-63
2023/12/01 08:06:55;;;;;;;;;;;;;;;;;;5008707;28;19949;-64
2023/12/01 08:09:22;;;;;;;;;;;;;;;;;;5007148;28;19972;-64
2023/12/01 08:11:50;;;;;;;;;;;;;;;;;;5007894;28;19979;-63
2023/12/01 08:14:17;;;;;;;;;;;;;;;;;;5008289;28;20439;-65
2023/12/01 08:16:44;;;;;;;;;;;;;;;;;;5006775;28;19977;-65
2023/12/01 08:19:11;;;;;;;;;;;;;;;;;;5001747;28;19925;-65
2023/12/01 08:21:38;;;;;;;;;;;;;;;;;;5011652;28;20352;-64
2023/12/01 08:24:05;;;;;;;;;;;;;;;;;;5009475;28;19929;-65
2023/12/01 08:26:32;;;;;;;;;;;;;;;;;;5009293;28;20004;-64
2023/12/01 08:28:59;;;;;;;;;;;;;;;;;;5009740;28;20112;-64
2023/12/01 08:31:26;;;;;;;;;;;;;;;;;;5010898;28;19926;-63
2023/12/01 08:33:53;;;;;;;;;;;;;;;;;;5008885;28;19975;-63
2023/12/01 08:36:21;;;;;;;;;;;;;;;;;;5004461;28;19925;-63
2023/12/01 08:38:48;;;;;;;;;;;;;;;;;;5007789;28;19925;-64
2023/12/01 08:41:15;;;;;;;;;;;;;;;;;;5002020;28;20058;-64
2023/12/01 08:43:41;;;;;;;;;;;;;;;;;;5008769;28;19926;-62
2023/12/01 08:46:08;;;;;;;;;;;;;;;;;;5008480;28;19991;-64
2023/12/01 08:48:35;;;;;;;;;;;;;;;;;;5007459;28;22048;-63
2023/12/01 08:51:03;;;;;;;;;;;;;;;;;;5006973;28;19929;-64
2023/12/01 08:53:30;;;;;;;;;;;;;;;;;;5010289;28;19964;-63
2023/12/01 08:55:57;;;;;;;;;;;;;;;;;;5011289;28;19926;-64
2023/12/01 08:58:24;;;;;;;;;;;;;;;;;;5010697;28;20003;-64
2023/12/01 09:00:51;;;;;;;;;;;;;;;;;;5009536;28;20024;-64
2023/12/01 09:03:18;;;;;;;;;;;;;;;;;;5006574;28;19972;-65
2023/12/01 09:05:45;;;;;;;;;;;;;;;;;;5011782;28;20446;-64
2023/12/01 09:08:12;;;;;;;;;;;;;;;;;;4998252;28;19932;-64
2023/12/01 09:10:39;;;;;;;;;;;;;;;;;;5006175;28;19925;-64
2023/12/01 09:13:06;;;;;;;;;;;;;;;;;;5009934;28;19980;-64
2023/12/01 09:15:33;;;;;;;;;;;;;;;;;;5007722;28;19929;-64
2023/12/01 09:18:00;;;;;;;;;;;;;;;;;;5007740;28;19980;-65
2023/12/01 09:20:27;;;;;;;;;;;;;;;;;;5008316;28;19925;-64
2023/12/01 09:22:55;;;;;;;;;;;;;;;;;;5004869;28;20039;-65
2023/12/01 09:25:22;;;;;;;;;;;;;;;;;;5005015;28;19925;-63
2023/12/01 09:27:49;;;;;;;;;;;;;;;;;;5008461;28;20023;-64
2023/12/01 09:30:17;;;;;;;;;;;;;;;;;;5002281;28;19929;-63
2023/12/01 09:32:44;;;;;;;;;;;;;;;;;;5003210;28;19925;-64
2023/12/01 09:35:15;;;;;;;;;;;;;;;;;;5001717;28;19944;-64
2023/12/01 09:37:42;;;;;;;;;;;;;;;;;;5010458;28;20008;-64
2023/12/01 09:40:10;;;;;;;;;;;;;;;;;;5010586;28;20391;-65
2023/12/01 09:42:37;;;;;;;;;;;;;;;;;;5002427;28;20327;-62
2023/12/01 09:45:04;;;;;;;;;;;;;;;;;;5005001;28;20035;-64
2023/12/01 09:47:32;;;;;;;;;;;;;;;;;;5005463;28;20559;-63
2023/12/01 09:50:01;;;;;;;;;;;;;;;;;;5003538;28;20397;-64
2023/12/01 09:52:28;;;;;;;;;;;;;;;;;;5009031;28;19929;-65
2023/12/01 09:54:55;;;;;;;;;;;;;;;;;;5001919;28;19983;-64
2023/12/01 09:57:22;;;;;;;;;;;;;;;;;;5001332;28;19933;-62
2023/12/01 09:59:49;;;;;;;;;;;;;;;;;;5008484;28;20016;-63
2023/12/01 10:02:16;;;;;;;;;;;;;;;;;;5007794;28;19976;-63
2023/12/01 10:04:45;;;;;;;;;;;;;;;;;;5008925;28;20336;-63
2023/12/01 10:07:12;;;;;;;;;;;;;;;;;;5007311;28;19925;-63
2023/12/01 10:09:39;;;;;;;;;;;;;;;;;;4996114;28;19926;-63
2023/12/01 10:12:07;;;;;;;;;;;;;;;;;;5009217;28;19926;-63
2023/12/01 10:14:34;;;;;;;;;;;;;;;;;;5006609;28;19952;-64
2023/12/01 10:17:01;;;;;;;;;;;;;;;;;;5008688;28;19969;-65
2023/12/01 10:19:28;;;;;;;;;;;;;;;;;;4997643;28;19933;-66
2023/12/01 10:21:55;;;;;;;;;;;;;;;;;;4995356;28;20028;-66
2023/12/01 10:24:22;;;;;;;;;;;;;;;;;;5008316;28;20393;-66
2023/12/01 10:26:50;;;;;;;;;;;;;;;;;;5005462;28;20301;-67
2023/12/01 10:29:17;;;;;;;;;;;;;;;;;;5010283;28;20487;-66
2023/12/01 10:31:44;;;;;;;;;;;;;;;;;;5001753;28;20622;-66
2023/12/01 10:34:11;;;;;;;;;;;;;;;;;;5008266;28;19969;-67
2023/12/01 10:36:38;;;;;;;;;;;;;;;;;;5009399;28;20431;-66
2023/12/01 10:39:07;;;;;;;;;;;;;;;;;;5013003;28;19972;-67
2023/12/01 10:41:34;;;;;;;;;;;;;;;;;;5009539;28;20032;-67
2023/12/01 10:44:01;;;;;;;;;;;;;;;;;;5013743;28;19926;-64
2023/12/01 10:46:28;;;;;;;;;;;;;;;;;;5008947;28;19926;-66
2023/12/01 10:48:55;;;;;;;;;;;;;;;;;;5010607;28;19933;-66
2023/12/01 10:51:22;;;;;;;;;;;;;;;;;;5013194;28;19933;-66
2023/12/01 10:53:49;;;;;;;;;;;;;;;;;;5017187;28;19932;-66
2023/12/01 10:56:16;;;;;;;;;;;;;;;;;;5012110;28;20351;-65
2023/12/01 10:58:43;;;;;;;;;;;;;;;;;;5012709;28;19925;-67
2023/12/01 11:01:10;;;;;;;;;;;;;;;;;;5008360;28;19937;-67
2023/12/01 11:03:37;;;;;;;;;;;;;;;;;;5016325;28;19971;-66
2023/12/01 11:06:04;;;;;;;;;;;;;;;;;;5005323;28;19925;-67
2023/12/01 11:08:31;;;;;;;;;;;;;;;;;;5015183;28;19948;-68
2023/12/01 11:10:58;;;;;;;;;;;;;;;;;;5010712;28;19937;-66
2023/12/01 11:13:25;;;;;;;;;;;;;;;;;;5012457;28;19972;-66
2023/12/01 11:15:53;;;;;;;;;;;;;;;;;;5005316;28;20017;-65
2023/12/01 11:18:20;;;;;;;;;;;;;;;;;;5008717;28;19929;-66
2023/12/01 11:20:48;;;;;;;;;;;;;;;;;;5008682;28;19965;-65
2023/12/01 11:23:15;;;;;;;;;;;;;;;;;;5006104;28;19937;-66
2023/12/01 11:25:43;;;;;;;;;;;;;;;;;;5006348;28;19926;-68
2023/12/01 11:28:10;;;;;;;;;;;;;;;;;;5009230;28;19932;-67
2023/12/01 11:30:37;;;;;;;;;;;;;;;;;;5016718;28;19925;-66
2023/12/01 11:33:04;;;;;;;;;;;;;;;;;;5003610;28;19932;-67
2023/12/01 11:35:32;;;;;;;;;;;;;;;;;;5005170;28;19980;-66
2023/12/01 11:37:59;;;;;;;;;;;;;;;;;;5009577;28;19931;-67
2023/12/01 11:40:27;;;;;;;;;;;;;;;;;;5010798;28;20388;-66
2023/12/01 11:42:54;;;;;;;;;;;;;;;;;;5008474;28;20392;-66
2023/12/01 11:45:21;;;;;;;;;;;;;;;;;;5007497;28;19925;-66
2023/12/01 11:47:48;;;;;;;;;;;;;;;;;;5011962;28;19929;-66
2023/12/01 11:50:15;;;;;;;;;;;;;;;;;;5012231;28;19957;-66
2023/12/01 11:52:43;;;;;;;;;;;;;;;;;;5012906;28;19926;-66
2023/12/01 11:55:10;;;;;;;;;;;;;;;;;;5008514;28;19926;-66
2023/12/01 11:57:39;;;;;;;;;;;;;;;;;;5007719;28;19926;-67
2023/12/01 12:00:09;;;;;;;;;;;;;;;;;;5010455;28;20042;-67
2023/12/01 12:02:36;;;;;;;;;;;;;;;;;;5007292;28;19925;-67
2023/12/01 12:05:05;;;;;;;;;;;;;;;;;;5009646;28;19969;-67
2023/12/01 12:07:32;;;;;;;;;;;;;;;;;;5010823;28;19988;-66
2023/12/01 12:09:59;;;;;;;;;;;;;;;;;;5011930;28;20053;-66
2023/12/01 12:12:26;;;;;;;;;;;;;;;;;;5009765;28;20083;-66
2023/12/01 12:14:55;;;;;;;;;;;;;;;;;;5010306;28;20396;-66
2023/12/01 12:17:22;;;;;;;;;;;;;;;;;;5011340;28;19948;-67
2023/12/01 12:19:51;;;;;;;;;;;;;;;;;;4997832;28;19979;-67
2023/12/01 12:22:19;;;;;;;;;;;;;;;;;;5007571;28;19926;-66
2023/12/01 12:24:46;;;;;;;;;;;;;;;;;;5013062;28;19932;-65
2023/12/01 12:27:13;;;;;;;;;;;;;;;;;;5007256;28;19933;-65
2023/12/01 12:29:40;;;;;;;;;;;;;;;;;;5010795;28;19964;-66
2023/12/01 12:32:07;;;;;;;;;;;;;;;;;;5003093;28;19941;-66
2023/12/01 12:34:34;;;;;;;;;;;;;;;;;;5009531;28;20286;-66
2023/12/01 12:37:01;;;;;;;;;;;;;;;;;;5005560;28;19980;-66
2023/12/01 12:39:28;;;;;;;;;;;;;;;;;;5006571;28;20008;-66
2023/12/01 12:41:57;;;;;;;;;;;;;;;;;;5013590;28;20407;-67
2023/12/01 12:44:25;;;;;;;;;;;;;;;;;;5007304;28;19932;-66
2023/12/01 12:46:52;;;;;;;;;;;;;;;;;;5002690;28;19980;-66
2023/12/01 12:49:19;;;;;;;;;;;;;;;;;;5005897;28;19925;-66
2023/12/01 12:51:46;;;;;;;;;;;;;;;;;;4999616;28;19953;-66
2023/12/01 12:54:13;;;;;;;;;;;;;;;;;;5009254;28;19925;-67
2023/12/01 12:56:40;;;;;;;;;;;;;;;;;;5009431;28;19925;-66
2023/12/01 12:59:07;;;;;;;;;;;;;;;;;;5009734;28;19961;-65
2023/12/01 13:01:34;;;;;;;;;;;;;;;;;;5012489;28;19979;-66
2023/12/01 13:04:01;;;;;;;;;;;;;;;;;;5013057;28;19963;-66
2023/12/01 13:06:29;;;;;;;;;;;;;;;;;;5001518;28;19925;-66
2023/12/01 13:08:56;;;;;;;;;;;;;;;;;;5009476;28;20523;-68
2023/12/01 13:11:23;;;;;;;;;;;;;;;;;;5008618;28;19925;-67
2023/12/01 13:13:50;;;;;;;;;;;;;;;;;;5009442;28;19933;-66
2023/12/01 13:16:17;;;;;;;;;;;;;;;;;;5010532;28;19925;-67
2023/12/01 13:18:46;;;;;;;;;;;;;;;;;;5008109;28;19952;-66
2023/12/01 13:21:14;;;;;;;;;;;;;;;;;;5008970;28;19969;-69
2023/12/01 13:23:41;;;;;;;;;;;;;;;;;;5007130;28;20405;-67
2023/12/01 13:26:08;;;;;;;;;;;;;;;;;;5005917;28;20032;-66
2023/12/01 13:28:35;;;;;;;;;;;;;;;;;;5010588;28;19925;-67
2023/12/01 13:31:02;;;;;;;;;;;;;;;;;;5010372;28;19972;-67
2023/12/01 13:33:29;;;;;;;;;;;;;;;;;;5011005;28;19926;-67
2023/12/01 13:35:56;;;;;;;;;;;;;;;;;;5007166;28;20048;-68
2023/12/01 13:38:24;;;;;;;;;;;;;;;;;;5015632;28;19933;-67
2023/12/01 13:40:51;;;;;;;;;;;;;;;;;;5010582;28;19985;-67
2023/12/01 13:43:18;;;;;;;;;;;;;;;;;;5010931;28;19926;-66
2023/12/01 13:45:45;;;;;;;;;;;;;;;;;;5004244;28;20016;-65
2023/12/01 13:48:12;;;;;;;;;;;;;;;;;;5005176;28;20373;-66
2023/12/01 13:50:39;;;;;;;;;;;;;;;;;;5006911;28;19933;-66
2023/12/01 13:53:06;;;;;;;;;;;;;;;;;;5006535;28;19929;-66
2023/12/01 13:55:33;;;;;;;;;;;;;;;;;;5017612;28;19934;-67
2023/12/01 13:58:00;;;;;;;;;;;;;;;;;;5005688;28;19932;-66
2023/12/01 14:00:27;;;;;;;;;;;;;;;;;;4998833;28;20419;-65
2023/12/01 14:02:54;;;;;;;;;;;;;;;;;;5009269;28;19977;-63
2023/12/01 14:05:21;;;;;;;;;;;;;;;;;;5009547;28;20389;-66
2023/12/01 14:07:48;;;;;;;;;;;;;;;;;;5006480;28;19945;-66
2023/12/01 14:10:15;;;;;;;;;;;;;;;;;;5014222;28;19933;-68
2023/12/01 14:12:42;;;;;;;;;;;;;;;;;;5009463;28;20683;-68
2023/12/01 14:15:10;;;;;;;;;;;;;;;;;;5008949;28;20033;-66
2023/12/01 14:17:37;;;;;;;;;;;;;;;;;;5002359;28;20009;-66
2023/12/01 14:20:04;;;;;;;;;;;;;;;;;;5006203;28;20332;-66
2023/12/01 14:22:31;;;;;;;;;;;;;;;;;;5007299;28;19949;-67
2023/12/01 14:24:58;;;;;;;;;;;;;;;;;;4999032;28;20385;-67
2023/12/01 14:27:25;;;;;;;;;;;;;;;;;;5007024;28;19933;-67
2023/12/01 14:29:52;;;;;;;;;;;;;;;;;;5003852;28;20290;-66
2023/12/01 14:32:19;;;;;;;;;;;;;;;;;;5013433;28;20032;-67
2023/12/01 14:34:46;;;;;;;;;;;;;;;;;;5011973;28;19992;-67
2023/12/01 14:37:13;;;;;;;;;;;;;;;;;;5009577;28;19980;-67
2023/12/01 14:39:40;;;;;;;;;;;;;;;;;;4999322;28;19991;-66
2023/12/01 14:42:07;;;;;;;;;;;;;;;;;;5009789;28;19926;-67
2023/12/01 14:44:34;;;;;;;;;;;;;;;;;;5014775;28;20280;-67
2023/12/01 14:47:01;;;;;;;;;;;;;;;;;;5013914;28;19984;-68
2023/12/01 14:49:28;;;;;;;;;;;;;;;;;;5013002;28;20547;-67
2023/12/01 14:51:55;;;;;;;;;;;;;;;;;;5011286;28;19926;-67
2023/12/01 14:54:23;;;;;;;;;;;;;;;;;;5023723;28;19926;-67
2023/12/01 14:56:52;;;;;;;;;;;;;;;;;;5010931;28;19925;-68
2023/12/01 14:59:19;;;;;;;;;;;;;;;;;;5010472;28;19926;-67
2023/12/01 15:01:49;;;;;;;;;;;;;;;;;;5017118;28;19925;-68
2023/12/01 15:04:16;;;;;;;;;;;;;;;;;;5023081;28;19925;-67
2023/12/01 15:06:43;;;;;;;;;;;;;;;;;;5010229;28;20351;-67
2023/12/01 15:09:11;;;;;;;;;;;;;;;;;;5011539;28;19926;-67
2023/12/01 15:11:41;;;;;;;;;;;;;;;;;;5006898;28;19954;-67
2023/12/01 15:14:09;;;;;;;;;;;;;;;;;;5014506;28;19926;-67
2023/12/01 15:16:36;;;;;;;;;;;;;;;;;;5010258;28;20396;-67
2023/12/01 15:19:03;;;;;;;;;;;;;;;;;;5021431;28;19925;-68
2023/12/01 15:21:30;;;;;;;;;;;;;;;;;;5008993;28;19930;-67
2023/12/01 15:23:57;;;;;;;;;;;;;;;;;;5012943;28;19926;-67
2023/12/01 15:26:24;;;;;;;;;;;;;;;;;;5008205;28;20257;-66
2023/12/01 15:28:51;;;;;;;;;;;;;;;;;;5009113;28;19984;-68
2023/12/01 15:31:18;;;;;;;;;;;;;;;;;;5011149;28;20300;-65
2023/12/01 15:33:46;;;;;;;;;;;;;;;;;;5013459;28;19925;-67
2023/12/01 15:36:13;;;;;;;;;;;;;;;;;;5022022;28;19926;-67
2023/12/01 15:38:40;;;;;;;;;;;;;;;;;;5001276;28;19926;-66
2023/12/01 15:41:07;;;;;;;;;;;;;;;;;;5001646;28;19968;-67
2023/12/01 15:43:34;;;;;;;;;;;;;;;;;;5007713;28;20040;-67
2023/12/01 15:46:01;;;;;;;;;;;;;;;;;;5002157;28;19980;-67
2023/12/01 15:48:28;;;;;;;;;;;;;;;;;;5007702;28;19929;-67
2023/12/01 15:50:55;;;;;;;;;;;;;;;;;;5012659;28;20388;-67
2023/12/01 15:53:22;;;;;;;;;;;;;;;;;;5022875;28;19940;-67
2023/12/01 15:55:49;;;;;;;;;;;;;;;;;;5027750;28;19933;-67
2023/12/01 15:58:16;;;;;;;;;;;;;;;;;;5011053;28;19926;-68
2023/12/01 16:00:45;;;;;;;;;;;;;;;;;;5013859;28;20312;-68
2023/12/01 16:03:14;;;;;;;;;;;;;;;;;;5012394;28;19929;-66
2023/12/01 16:05:41;;;;;;;;;;;;;;;;;;5013721;28;19964;-67
2023/12/01 16:08:09;;;;;;;;;;;;;;;;;;5013851;28;19987;-66
2023/12/01 16:10:36;;;;;;;;;;;;;;;;;;5013168;28;19953;-66
2023/12/01 16:13:05;;;;;;;;;;;;;;;;;;5002275;28;19960;-67
2023/12/01 16:15:32;;;;;;;;;;;;;;;;;;5008491;28;20303;-68
2023/12/01 16:17:59;;;;;;;;;;;;;;;;;;5005302;28;20308;-66
2023/12/01 16:20:26;;;;;;;;;;;;;;;;;;5008949;28;19932;-66
2023/12/01 16:22:53;;;;;;;;;;;;;;;;;;5010082;28;19973;-67
2023/12/01 16:25:20;;;;;;;;;;;;;;;;;;5011046;28;19925;-66
2023/12/01 16:27:48;;;;;;;;;;;;;;;;;;5006602;28;19932;-67
2023/12/01 16:30:15;;;;;;;;;;;;;;;;;;5009450;28;20289;-67
2023/12/01 16:32:42;;;;;;;;;;;;;;;;;;5010506;28;20024;-68
2023/12/01 16:35:10;;;;;;;;;;;;;;;;;;5009921;28;19925;-67
2023/12/01 16:37:37;;;;;;;;;;;;;;;;;;5008387;28;19980;-68
2023/12/01 16:40:05;;;;;;;;;;;;;;;;;;5007344;28;19926;-67
2023/12/01 16:42:32;;;;;;;;;;;;;;;;;;5009367;28;19929;-66
2023/12/01 16:44:59;;;;;;;;;;;;;;;;;;5008074;28;19988;-68
2023/12/01 16:47:26;;;;;;;;;;;;;;;;;;5005032;28;19926;-68